Time;durP1;ratioP1;P1;durP2;ratioP2;P2;SDS_P1;SDS_P2;PMS_P1;PMS_P2;Temp;Humidity;BMP_temperature;BMP_pressure;BME280_temperature;BME280_humidity;BME280_pressure;Samples;Min_cycle;Max_cycle;Signal;HPM_P1;HPM_P2
2022/05/15 00:00:43;;;;;;;14.77;11.20;;;;;;;;;;6155201;23;20399;-95
2022/05/15 00:03:49;;;;;;;10.93;9.93;;;;;;;;;;6160445;23;20936;-95
2022/05/15 00:06:58;;;;;;;11.47;10.30;;;;;;;;;;6155202;23;20396;-94
2022/05/15 00:10:04;;;;;;;11.63;10.43;;;;;;;;;;6156077;23;20389;-94
2022/05/15 00:13:12;;;;;;;12.53;10.00;;;;;;;;;;6156686;23;20411;-94
2022/05/15 00:16:16;;;;;;;12.40;10.30;;;;;;;;;;6156742;23;20377;-96
2022/05/15 00:19:30;;;;;;;10.83;9.93;;;;;;;;;;6156713;23;20387;-95
2022/05/15 00:22:41;;;;;;;10.90;9.97;;;;;;;;;;6153752;23;20403;-94
2022/05/15 00:25:40;;;;;;;14.43;11.23;;;;;;;;;;6154873;23;20490;-96
2022/05/15 00:28:51;;;;;;;11.40;10.43;;;;;;;;;;6167977;23;20407;-95
2022/05/15 00:31:57;;;;;;;13.10;11.27;;;;;;;;;;6171964;23;20411;-95
2022/05/15 00:35:01;;;;;;;12.67;11.50;;;;;;;;;;6173026;22;20443;-94
2022/05/15 00:38:07;;;;;;;12.60;11.30;;;;;;;;;;6172073;22;20395;-94
2022/05/15 00:41:15;;;;;;;12.30;11.00;;;;;;;;;;6168168;22;20652;-95
2022/05/15 00:44:18;;;;;;;12.27;11.17;;;;;;;;;;6154404;23;20399;-94
2022/05/15 00:47:27;;;;;;;14.07;11.60;;;;;;;;;;6162336;23;20411;-94
2022/05/15 00:50:32;;;;;;;13.17;11.87;;;;;;;;;;6158807;23;20384;-94
2022/05/15 00:53:42;;;;;;;13.63;11.07;;;;;;;;;;6155206;23;20380;-95
2022/05/15 00:56:48;;;;;;;12.87;11.60;;;;;;;;;;6156794;23;20396;-94
2022/05/15 01:00:03;;;;;;;11.90;10.90;;;;;;;;;;6161551;23;20385;-94
2022/05/15 01:03:09;;;;;;;13.90;11.27;;;;;;;;;;6163305;23;20380;-95
2022/05/15 01:06:20;;;;;;;13.40;11.50;;;;;;;;;;6161965;23;20698;-95
2022/05/15 01:09:24;;;;;;;17.43;11.80;;;;;;;;;;6155987;23;20412;-94
2022/05/15 01:12:32;;;;;;;18.40;12.43;;;;;;;;;;6166841;23;20395;-94
2022/05/15 01:15:56;;;;;;;13.17;11.97;;;;;;;;;;6165736;23;20391;-94
2022/05/15 01:18:47;;;;;;;13.63;12.30;;;;;;;;;;6157780;23;20403;-94
2022/05/15 01:22:00;;;;;;;13.83;11.50;;;;;;;;;;6162068;23;20395;-95
2022/05/15 01:24:59;;;;;;;14.17;12.77;;;;;;;;;;6152664;23;20430;-94
2022/05/15 01:28:06;;;;;;;14.20;13.00;;;;;;;;;;6162047;23;20412;-94
2022/05/15 01:31:12;;;;;;;13.80;12.80;;;;;;;;;;6164972;23;20453;-90
2022/05/15 01:34:17;;;;;;;12.40;11.40;;;;;;;;;;6147093;23;20388;-90
2022/05/15 01:37:23;;;;;;;14.70;11.30;;;;;;;;;;6146971;23;21094;-91
2022/05/15 01:40:31;;;;;;;19.03;12.57;;;;;;;;;;6147225;23;20398;-91
2022/05/15 01:43:35;;;;;;;14.07;12.73;;;;;;;;;;6146797;23;20420;-91
2022/05/15 01:46:41;;;;;;;12.30;11.33;;;;;;;;;;6149356;23;20448;-91
2022/05/15 01:49:47;;;;;;;12.40;11.10;;;;;;;;;;6146524;23;20385;-91
2022/05/15 01:52:53;;;;;;;14.40;12.23;;;;;;;;;;6149456;23;20903;-91
2022/05/15 01:56:02;;;;;;;13.30;12.27;;;;;;;;;;6149615;23;20400;-91
2022/05/15 01:59:10;;;;;;;12.13;10.90;;;;;;;;;;6150153;23;20384;-91
2022/05/15 02:02:14;;;;;;;16.37;12.27;;;;;;;;;;6148337;23;20455;-91
2022/05/15 02:05:19;;;;;;;17.27;13.10;;;;;;;;;;6155891;23;20447;-90
2022/05/15 02:08:25;;;;;;;24.83;13.63;;;;;;;;;;6144707;23;20783;-90
2022/05/15 02:11:31;;;;;;;13.67;12.47;;;;;;;;;;6149992;23;20393;-88
2022/05/15 02:14:39;;;;;;;11.87;10.93;;;;;;;;;;6148536;23;20388;-92
2022/05/15 02:17:52;;;;;;;12.40;11.13;;;;;;;;;;6148617;23;20463;-91
2022/05/15 02:20:49;;;;;;;14.80;12.03;;;;;;;;;;6150359;23;20463;-90
2022/05/15 02:23:57;;;;;;;13.10;11.87;;;;;;;;;;6146808;23;20745;-91
2022/05/15 02:27:03;;;;;;;16.13;12.87;;;;;;;;;;6156235;23;20431;-92
2022/05/15 02:30:06;;;;;;;13.93;12.50;;;;;;;;;;6155211;23;20392;-91
2022/05/15 02:33:15;;;;;;;12.33;11.30;;;;;;;;;;6150230;23;20397;-90
2022/05/15 02:36:21;;;;;;;15.30;11.83;;;;;;;;;;6144102;23;20879;-90
2022/05/15 02:39:27;;;;;;;13.10;11.00;;;;;;;;;;6155314;23;20935;-91
2022/05/15 02:42:30;;;;;;;12.77;11.83;;;;;;;;;;6150254;23;20799;-91
2022/05/15 02:45:39;;;;;;;13.03;11.80;;;;;;;;;;6151287;23;20515;-91
2022/05/15 02:51:52;;;;;;;15.90;13.90;;;;;;;;;;6151688;23;20722;-91
2022/05/15 02:54:58;;;;;;;15.27;13.40;;;;;;;;;;6153645;23;20416;-91
2022/05/15 02:58:07;;;;;;;14.07;12.67;;;;;;;;;;6154363;23;20376;-91
2022/05/15 03:01:13;;;;;;;14.27;12.47;;;;;;;;;;6159547;22;20465;-91
2022/05/15 03:04:19;;;;;;;13.67;12.37;;;;;;;;;;6150971;23;20395;-91
2022/05/15 03:07:25;;;;;;;17.07;13.47;;;;;;;;;;6146953;23;20693;-91
2022/05/15 03:10:30;;;;;;;14.17;12.73;;;;;;;;;;6138481;23;20385;-91
2022/05/15 03:13:36;;;;;;;13.40;12.00;;;;;;;;;;6148555;23;20388;-90
2022/05/15 03:16:48;;;;;;;14.80;13.70;;;;;;;;;;6149196;23;20385;-91
2022/05/15 03:19:54;;;;;;;15.30;13.67;;;;;;;;;;6147552;23;20433;-89
2022/05/15 03:22:59;;;;;;;14.83;13.00;;;;;;;;;;6148212;23;20946;-90
2022/05/15 03:26:03;;;;;;;13.23;12.03;;;;;;;;;;6141170;23;20436;-90
2022/05/15 03:29:09;;;;;;;14.20;12.80;;;;;;;;;;6147914;23;20975;-90
2022/05/15 03:32:15;;;;;;;12.90;11.83;;;;;;;;;;6150512;23;20904;-91
2022/05/15 03:35:20;;;;;;;15.50;13.90;;;;;;;;;;6147769;23;20406;-91
2022/05/15 03:38:26;;;;;;;13.80;12.60;;;;;;;;;;6144953;23;20457;-90
2022/05/15 03:41:35;;;;;;;13.13;12.10;;;;;;;;;;6150040;23;20444;-90
2022/05/15 03:44:47;;;;;;;13.13;12.13;;;;;;;;;;6147621;23;20762;-90
2022/05/15 03:47:53;;;;;;;12.97;11.93;;;;;;;;;;6148086;23;20764;-89
2022/05/15 03:50:59;;;;;;;14.27;12.80;;;;;;;;;;6147854;23;20419;-90
2022/05/15 03:54:09;;;;;;;13.50;12.23;;;;;;;;;;6147911;23;20768;-91
2022/05/15 03:57:16;;;;;;;12.83;11.50;;;;;;;;;;6148682;23;20409;-91
2022/05/15 04:00:19;;;;;;;13.50;12.40;;;;;;;;;;6147105;23;20879;-91
2022/05/15 04:03:28;;;;;;;17.60;11.73;;;;;;;;;;6148381;23;20483;-91
2022/05/15 04:06:43;;;;;;;13.93;11.90;;;;;;;;;;6147861;23;20999;-91
2022/05/15 04:09:52;;;;;;;12.30;11.20;;;;;;;;;;6146762;23;20434;-91
2022/05/15 04:12:58;;;;;;;16.93;13.27;;;;;;;;;;6145694;23;20392;-89
2022/05/15 04:19:16;;;;;;;14.43;12.80;;;;;;;;;;6135320;23;20455;-90
2022/05/15 04:22:22;;;;;;;13.13;11.73;;;;;;;;;;6168305;23;20817;-90
2022/05/15 04:25:30;;;;;;;12.53;11.60;;;;;;;;;;6145422;23;20970;-91
2022/05/15 04:28:35;;;;;;;13.43;12.20;;;;;;;;;;6149532;23;20391;-91
2022/05/15 04:31:40;;;;;;;13.57;12.37;;;;;;;;;;6147379;23;20483;-91
2022/05/15 04:34:46;;;;;;;12.70;11.47;;;;;;;;;;6149649;23;20386;-92
2022/05/15 04:37:52;;;;;;;12.70;11.50;;;;;;;;;;6142572;23;20978;-92
2022/05/15 04:40:57;;;;;;;20.87;18.80;;;;;;;;;;6147044;23;20384;-91
2022/05/15 04:44:03;;;;;;;13.90;12.83;;;;;;;;;;6146921;23;20400;-91
2022/05/15 04:47:09;;;;;;;18.67;12.97;;;;;;;;;;6146845;23;20457;-91
2022/05/15 04:50:15;;;;;;;13.23;11.93;;;;;;;;;;6146737;23;20388;-92
2022/05/15 04:53:21;;;;;;;13.17;11.97;;;;;;;;;;6148661;23;20394;-91
2022/05/15 04:56:32;;;;;;;12.40;11.50;;;;;;;;;;6147040;23;20392;-91
2022/05/15 04:59:36;;;;;;;11.27;10.30;;;;;;;;;;6148157;23;20388;-90
2022/05/15 05:02:42;;;;;;;12.40;11.40;;;;;;;;;;6147890;23;20380;-91
2022/05/15 05:05:47;;;;;;;11.03;10.17;;;;;;;;;;6146816;23;20447;-91
2022/05/15 05:08:56;;;;;;;10.80;9.90;;;;;;;;;;6142729;23;20914;-90
2022/05/15 05:12:02;;;;;;;15.03;11.27;;;;;;;;;;6149449;23;20450;-91
2022/05/15 05:15:12;;;;;;;10.83;9.73;;;;;;;;;;6147711;23;20392;-91
2022/05/15 05:18:20;;;;;;;10.07;9.53;;;;;;;;;;6149423;23;20467;-91
2022/05/15 05:21:27;;;;;;;10.77;9.70;;;;;;;;;;6151215;23;20463;-91
2022/05/15 05:24:35;;;;;;;9.63;8.90;;;;;;;;;;6151105;23;20384;-92
2022/05/15 05:27:38;;;;;;;10.60;9.77;;;;;;;;;;6153153;23;20480;-92
2022/05/15 05:30:50;;;;;;;10.10;9.30;;;;;;;;;;6151019;23;20398;-91
2022/05/15 05:33:56;;;;;;;9.50;9.00;;;;;;;;;;6146038;23;20411;-90
2022/05/15 05:37:04;;;;;;;10.07;9.40;;;;;;;;;;6148446;23;20392;-87
2022/05/15 05:40:07;;;;;;;10.23;9.57;;;;;;;;;;6149324;23;20392;-91
2022/05/15 05:43:21;;;;;;;10.67;9.77;;;;;;;;;;6146179;23;20423;-91
2022/05/15 07:28:00;;;;;;;6.10;5.77;;;;;;;;;;6125312;22;20538;-94
2022/05/15 07:45:56;;;;;;;;;;;;;;;;;;;;;
2022/05/15 07:49:13;;;;;;;6.30;5.70;;;;;;;;;;6189358;22;20493;-92
2022/05/15 08:24:14;;;;;;;5.33;4.83;;;;;;;;;;6126769;23;20513;-93
2022/05/15 08:27:43;;;;;;;4.97;4.47;;;;;;;;;;6138280;23;20389;-93
2022/05/15 11:21:35;;;;;;;3.80;3.50;;;;;;;;;;6127217;22;20424;-92
2022/05/15 11:36:38;;;;;;;;;;;;;;;;;;;;;
2022/05/15 11:39:30;;;;;;;;;;;;;;;;;;;;;
2022/05/15 12:05:48;;;;;;;3.90;3.60;;;;;;;;;;6162126;22;20836;-94
2022/05/15 12:22:50;;;;;;;3.90;3.60;;;;;;;;;;6165550;22;20510;-92
2022/05/15 12:31:40;;;;;;;3.57;3.27;;;;;;;;;;6174385;23;20371;-91
2022/05/15 12:35:01;;;;;;;;;;;;;;;;;;;;;
2022/05/15 12:41:01;;;;;;;3.33;3.10;;;;;;;;;;6140211;23;20384;-89
2022/05/15 12:44:08;;;;;;;3.30;3.20;;;;;;;;;;6154866;23;20411;-89
2022/05/15 12:47:05;;;;;;;3.47;3.27;;;;;;;;;;6152126;23;20537;-90
2022/05/15 12:58:55;;;;;;;3.50;3.20;;;;;;;;;;6077203;23;20441;-87
2022/05/15 13:02:09;;;;;;;5.80;4.20;;;;;;;;;;6143045;22;20486;-89
2022/05/15 13:05:14;;;;;;;3.93;3.63;;;;;;;;;;6152935;23;20450;-89
2022/05/15 13:08:20;;;;;;;3.60;3.50;;;;;;;;;;6149547;23;20404;-89
2022/05/15 13:11:41;;;;;;;4.83;4.53;;;;;;;;;;6151129;23;20403;-90
2022/05/15 13:15:02;;;;;;;4.87;3.97;;;;;;;;;;6153570;23;20463;-90
2022/05/15 13:18:11;;;;;;;;;;;;;;;;;;;;;
2022/05/15 13:21:25;;;;;;;3.70;3.50;;;;;;;;;;6158246;23;20684;-91
2022/05/15 13:27:55;;;;;;;5.13;4.43;;;;;;;;;;6034105;23;20387;-89
2022/05/15 13:30:55;;;;;;;4.93;3.60;;;;;;;;;;6042548;23;20386;-89
2022/05/15 13:34:06;;;;;;;3.20;3.10;;;;;;;;;;6169349;23;20416;-93
2022/05/15 13:37:09;;;;;;;3.90;3.60;;;;;;;;;;6170353;22;20384;-94
2022/05/15 13:43:32;;;;;;;3.43;3.33;;;;;;;;;;6126651;22;20902;-93
2022/05/15 13:46:39;;;;;;;3.80;3.60;;;;;;;;;;6167991;23;20515;-93
2022/05/15 13:49:54;;;;;;;6.37;5.13;;;;;;;;;;6151629;22;20543;-90
2022/05/15 13:52:54;;;;;;;4.03;3.73;;;;;;;;;;6163099;23;20393;-92
2022/05/15 13:56:06;;;;;;;4.37;3.97;;;;;;;;;;6167026;23;20475;-95
2022/05/15 13:59:09;;;;;;;3.80;3.50;;;;;;;;;;6162953;23;20416;-93
2022/05/15 14:02:16;;;;;;;5.63;4.47;;;;;;;;;;6170247;22;20372;-95
2022/05/15 14:05:05;;;;;;;3.97;3.67;;;;;;;;;;6170462;22;20428;-92
2022/05/15 14:13:29;;;;;;;5.70;5.40;;;;;;;;;;6148444;22;20455;-90
2022/05/15 14:33:17;;;;;;;3.77;3.57;;;;;;;;;;6169196;22;20798;-95
2022/05/15 14:39:02;;;;;;;4.27;4.03;;;;;;;;;;6168419;22;20464;-94
2022/05/15 14:44:48;;;;;;;3.80;3.70;;;;;;;;;;6160810;22;20451;-90
2022/05/15 14:47:56;;;;;;;6.23;3.70;;;;;;;;;;6168931;22;20485;-94
2022/05/15 14:53:33;;;;;;;3.97;3.87;;;;;;;;;;6160797;22;20473;-95
2022/05/15 14:59:40;;;;;;;3.20;3.10;;;;;;;;;;6160203;22;20476;-94
2022/05/15 15:02:48;;;;;;;3.90;3.70;;;;;;;;;;6172217;22;20400;-93
2022/05/15 15:05:55;;;;;;;4.63;4.33;;;;;;;;;;6161282;22;20519;-94
2022/05/15 15:09:00;;;;;;;4.10;3.80;;;;;;;;;;6165701;23;20468;-96
2022/05/15 15:12:07;;;;;;;3.50;3.40;;;;;;;;;;6166767;23;20415;-93
2022/05/15 15:15:33;;;;;;;6.70;4.33;;;;;;;;;;6169345;23;20384;-96
2022/05/15 15:18:34;;;;;;;4.17;3.87;;;;;;;;;;6167786;23;20393;-95
2022/05/15 15:21:25;;;;;;;4.10;3.80;;;;;;;;;;6062540;23;20392;-93
2022/05/15 15:24:11;;;;;;;5.07;4.50;;;;;;;;;;6133920;23;20432;-91
2022/05/15 15:27:29;;;;;;;5.03;4.70;;;;;;;;;;6139292;23;20507;-93
2022/05/15 15:30:32;;;;;;;4.40;4.00;;;;;;;;;;6138770;23;20385;-94
2022/05/15 15:33:42;;;;;;;4.30;3.70;;;;;;;;;;6139829;23;20377;-96
2022/05/15 15:39:24;;;;;;;4.10;3.83;;;;;;;;;;6126448;22;20428;-91
2022/05/15 15:42:40;;;;;;;4.23;4.00;;;;;;;;;;6170704;23;20365;-95
2022/05/15 15:45:46;;;;;;;4.37;3.80;;;;;;;;;;6170569;22;20420;-93
2022/05/15 15:52:03;;;;;;;5.33;4.93;;;;;;;;;;6141631;22;20494;-91
2022/05/15 15:55:09;;;;;;;8.83;4.30;;;;;;;;;;6168591;22;20408;-91
2022/05/15 15:58:14;;;;;;;4.40;4.17;;;;;;;;;;6163222;23;20396;-92
2022/05/15 16:01:20;;;;;;;4.73;4.40;;;;;;;;;;6172075;23;20380;-90
2022/05/15 16:17:50;;;;;;;4.03;3.70;;;;;;;;;;6171124;22;20436;-91
2022/05/15 16:48:19;;;;;;;5.20;4.37;;;;;;;;;;6054068;23;20409;-93
2022/05/15 16:51:33;;;;;;;6.77;4.20;;;;;;;;;;6124806;23;20397;-93
2022/05/15 16:54:52;;;;;;;8.03;4.33;;;;;;;;;;6121949;23;21017;-92
2022/05/15 17:12:49;;;;;;;;;;;;;;;;;;;;;
2022/05/15 17:15:48;;;;;;;4.90;4.50;;;;;;;;;;6289312;22;20365;-93
2022/05/15 17:19:00;;;;;;;4.30;4.10;;;;;;;;;;6287959;22;20373;-87
2022/05/15 17:22:10;;;;;;;5.30;3.87;;;;;;;;;;6193323;23;21162;-89
2022/05/15 17:25:32;;;;;;;5.13;4.73;;;;;;;;;;6282635;22;20821;-89
2022/05/15 17:36:54;;;;;;;8.03;4.60;;;;;;;;;;6287276;22;20698;-92
2022/05/15 18:31:19;;;;;;;6.33;4.47;;;;;;;;;;6131397;22;20995;-93
2022/05/15 18:33:53;;;;;;;4.33;3.93;;;;;;;;;;6280812;22;20460;-91
2022/05/15 18:36:48;;;;;;;7.53;4.17;;;;;;;;;;6276896;22;20572;-92
2022/05/15 18:40:15;;;;;;;8.30;4.43;;;;;;;;;;6285645;22;21093;-90
2022/05/15 18:43:04;;;;;;;;;;;;;;;;;;;;;
2022/05/15 18:45:31;;;;;;;9.00;5.37;;;;;;;;;;6260252;22;20455;-91
2022/05/15 18:48:07;;;;;;;4.43;4.03;;;;;;;;;;6293586;22;20379;-90
2022/05/15 18:57:05;;;;;;;5.90;5.13;;;;;;;;;;6284459;22;20388;-92
2022/05/15 19:00:14;;;;;;;7.17;4.20;;;;;;;;;;6277961;22;20380;-90
2022/05/15 19:03:31;;;;;;;6.40;5.90;;;;;;;;;;6275392;22;20392;-93
2022/05/15 19:09:58;;;;;;;3.77;3.40;;;;;;;;;;6250057;23;20462;-93
2022/05/15 19:12:49;;;;;;;8.27;4.60;;;;;;;;;;6242634;23;20381;-91
2022/05/15 19:16:01;;;;;;;5.20;4.70;;;;;;;;;;6243716;23;20414;-92
2022/05/15 19:19:10;;;;;;;12.90;4.93;;;;;;;;;;6242243;23;20385;-93
2022/05/15 19:22:16;;;;;;;5.53;5.03;;;;;;;;;;6244142;23;20481;-91
2022/05/15 19:25:22;;;;;;;11.80;5.93;;;;;;;;;;6244530;23;20542;-93
2022/05/15 19:28:27;;;;;;;4.20;3.77;;;;;;;;;;6242497;23;20400;-91
2022/05/15 19:31:34;;;;;;;6.00;5.00;;;;;;;;;;6254561;23;20420;-90
2022/05/15 19:34:27;;;;;;;5.57;5.07;;;;;;;;;;6235183;22;20467;-90
2022/05/15 19:39:29;;;;;;;6.40;5.50;;;;;;;;;;6141169;23;20448;-92
2022/05/15 19:42:05;;;;;;;6.73;4.73;;;;;;;;;;6140733;23;20407;-90
2022/05/15 19:44:34;;;;;;;6.43;5.40;;;;;;;;;;6140945;23;20423;-93
2022/05/15 19:47:00;;;;;;;6.33;4.57;;;;;;;;;;6138556;23;20445;-94
2022/05/15 20:13:17;;;;;;;6.07;4.90;;;;;;;;;;6201412;22;20451;-91
2022/05/15 20:18:18;;;;;;;5.30;4.90;;;;;;;;;;6152821;22;20445;-94
2022/05/15 20:20:56;;;;;;;5.30;5.00;;;;;;;;;;6332725;22;20412;-94
2022/05/15 20:23:31;;;;;;;5.70;5.00;;;;;;;;;;6330438;22;20390;-93
2022/05/15 20:26:21;;;;;;;7.63;5.30;;;;;;;;;;6301189;22;20444;-94
2022/05/15 20:28:50;;;;;;;5.20;4.67;;;;;;;;;;6294516;22;20660;-92
2022/05/15 20:31:22;;;;;;;7.30;4.83;;;;;;;;;;6315540;22;20395;-92
2022/05/15 20:33:49;;;;;;;6.47;5.23;;;;;;;;;;6323584;22;20478;-90
2022/05/15 20:36:23;;;;;;;4.40;4.00;;;;;;;;;;6341418;22;20888;-93
2022/05/15 20:38:49;;;;;;;8.60;6.47;;;;;;;;;;6316083;22;20394;-93
2022/05/15 20:41:18;;;;;;;7.07;5.70;;;;;;;;;;6315199;22;20440;-91
2022/05/15 20:43:50;;;;;;;9.27;4.97;;;;;;;;;;6314075;22;20402;-93
2022/05/15 20:46:16;;;;;;;8.10;4.90;;;;;;;;;;6349898;22;21182;-92
2022/05/15 20:49:00;;;;;;;4.30;4.00;;;;;;;;;;6324507;22;20394;-93
2022/05/15 20:51:27;;;;;;;4.97;4.43;;;;;;;;;;6330436;22;20390;-93
2022/05/15 21:09:54;;;;;;;4.87;4.57;;;;;;;;;;6105989;22;20476;-93
2022/05/15 21:12:34;;;;;;;8.13;4.80;;;;;;;;;;6079695;23;20397;-92
2022/05/15 21:15:20;;;;;;;7.00;4.23;;;;;;;;;;6069924;23;20390;-94
2022/05/15 21:17:51;;;;;;;5.20;4.70;;;;;;;;;;6085184;23;20418;-93
2022/05/15 21:20:44;;;;;;;5.57;5.00;;;;;;;;;;6090235;23;20477;-91
